Time;durP1;ratioP1;P1;durP2;ratioP2;P2;SDS_P1;SDS_P2;PMS_P1;PMS_P2;Temp;Humidity;BMP_temperature;BMP_pressure;BME280_temperature;BME280_humidity;BME280_pressure;Samples;Min_cycle;Max_cycle;Signal;HPM_P1;HPM_P2
2023/01/17 00:10:48;;;;;;;1.10;1.10;;;;;;;3.08;100.00;97114.84;4859887;29;20566;-80
2023/01/17 00:13:59;;;;;;;;;;;;;;;;;;;;;
2023/01/17 00:16:48;;;;;;;1.45;1.23;;;;;;;3.10;100.00;97114.78;4856760;29;20076;-79
2023/01/17 01:34:36;;;;;;;2.20;2.00;;;;;;;2.62;100.00;97168.09;4926311;29;20036;-79
2023/01/17 01:37:03;;;;;;;2.53;2.35;;;;;;;2.62;100.00;97183.59;4925970;29;20039;-78
2023/01/17 01:39:29;;;;;;;2.42;2.22;;;;;;;2.66;100.00;97177.44;4917916;29;20043;-78
2023/01/17 01:41:56;;;;;;;3.33;3.03;;;;;;;2.76;100.00;97180.56;4909640;29;20059;-77
2023/01/17 01:44:48;;;;;;;3.63;2.88;;;;;;;2.87;100.00;97186.22;4924922;29;20036;-78
2023/01/17 01:47:34;;;;;;;3.28;2.95;;;;;;;2.86;100.00;97186.28;4940411;28;20051;-77
2023/01/17 01:50:05;;;;;;;3.10;2.78;;;;;;;2.83;100.00;97192.38;4906222;29;20426;-77
2023/01/17 01:52:34;;;;;;;2.97;2.78;;;;;;;2.81;100.00;97195.00;4939359;28;20043;-77
2023/01/17 01:55:07;;;;;;;2.42;2.22;;;;;;;2.86;100.00;97196.59;4913940;29;20427;-78
2023/01/17 01:57:41;;;;;;;2.42;2.22;;;;;;;2.85;100.00;97194.91;4931813;28;20063;-77
2023/01/17 02:00:18;;;;;;;2.47;2.20;;;;;;;2.90;100.00;97190.44;4920978;28;20074;-76
2023/01/17 02:02:48;;;;;;;2.05;1.95;;;;;;;2.91;100.00;97195.53;4907676;29;20052;-76
2023/01/17 02:05:18;;;;;;;2.45;2.13;;;;;;;2.94;100.00;97192.84;4924221;29;20151;-75
2023/01/17 02:08:07;;;;;;;2.47;2.28;;;;;;;2.88;100.00;97210.28;4919036;29;20063;-76
2023/01/17 02:10:37;;;;;;;2.45;2.35;;;;;;;2.86;100.00;97219.84;4906767;29;20046;-77
2023/01/17 02:13:05;;;;;;;2.88;2.65;;;;;;;2.81;100.00;97220.81;4938576;28;20047;-76
2023/01/17 02:15:45;;;;;;;2.67;2.47;;;;;;;2.86;100.00;97227.59;4928827;29;20149;-76
2023/01/17 02:18:51;;;;;;;2.15;2.05;;;;;;;2.80;100.00;97224.31;4938831;28;20523;-76
2023/01/17 02:22:14;;;;;;;1.88;1.77;;;;;;;2.74;100.00;97223.69;4923163;29;20059;-75
2023/01/17 02:25:11;;;;;;;1.80;1.70;;;;;;;2.70;100.00;97222.94;4933891;29;20038;-76
2023/01/17 02:28:13;;;;;;;2.13;1.88;;;;;;;2.64;100.00;97239.47;4934135;29;20479;-75
2023/01/17 02:30:46;;;;;;;1.33;1.30;;;;;;;2.56;100.00;97233.69;4927050;29;20549;-78
2023/01/17 02:33:29;;;;;;;2.03;1.83;;;;;;;2.59;100.00;97243.09;4945127;28;20040;-76
2023/01/17 02:36:29;;;;;;;2.88;1.92;;;;;;;2.61;100.00;97246.47;4926765;29;21333;-76
2023/01/17 02:43:33;;;;;;;1.30;1.20;;;;;;;2.56;100.00;97256.09;4884486;29;20452;-76
2023/01/17 02:46:01;;;;;;;1.30;1.20;;;;;;;2.52;100.00;97254.53;4902550;29;20057;-76
2023/01/17 02:48:33;;;;;;;1.75;1.60;;;;;;;2.51;100.00;97268.31;4885719;29;20483;-79
2023/01/17 02:51:43;;;;;;;1.65;1.58;;;;;;;2.51;100.00;97273.47;4891259;29;20052;-79
2023/01/17 02:55:00;;;;;;;1.63;1.52;;;;;;;2.52;100.00;97259.69;4903732;29;20076;-76
2023/01/17 02:58:00;;;;;;;1.67;1.50;;;;;;;2.60;100.00;97268.03;4863061;29;20056;-76
2023/01/17 03:01:01;;;;;;;1.50;1.40;;;;;;;2.59;100.00;97281.81;4928484;29;20047;-78
2023/01/17 03:04:20;;;;;;;1.85;1.75;;;;;;;2.58;100.00;97282.72;4940960;28;20071;-78
2023/01/17 03:06:59;;;;;;;2.15;1.70;;;;;;;2.56;100.00;97292.25;4889809;29;20052;-81
2023/01/17 03:09:30;;;;;;;1.70;1.60;;;;;;;2.54;100.00;97286.28;4874550;29;20056;-75
2023/01/17 03:12:00;;;;;;;2.38;2.17;;;;;;;2.59;100.00;97294.72;4870708;29;20165;-76
2023/01/17 03:14:31;;;;;;;1.52;1.42;;;;;;;2.60;100.00;97301.59;4878087;29;20036;-76
2023/01/17 03:17:11;;;;;;;1.20;1.20;;;;;;;2.59;100.00;97307.66;4876594;29;20123;-76
2023/01/17 03:19:40;;;;;;;1.20;1.20;;;;;;;2.66;100.00;97311.75;4873342;29;20095;-76
2023/01/17 03:22:06;;;;;;;1.50;1.40;;;;;;;2.73;100.00;97314.97;4891039;29;20044;-77
2023/01/17 03:24:33;;;;;;;0.95;0.95;;;;;;;2.77;100.00;97313.97;4886620;29;20052;-77
2023/01/17 03:26:59;;;;;;;0.93;0.93;;;;;;;2.78;100.00;97323.44;4928453;29;20047;-77
2023/01/17 03:29:26;;;;;;;1.25;1.15;;;;;;;2.81;100.00;97323.31;4920031;29;20048;-77
2023/01/17 03:35:17;;;;;;;0.70;0.70;;;;;;;2.88;100.00;97330.00;4866038;29;20222;-77
2023/01/17 03:37:44;;;;;;;0.70;0.70;;;;;;;2.89;100.00;97333.41;4912103;29;20489;-76
2023/01/17 03:40:17;;;;;;;1.95;1.08;;;;;;;2.87;100.00;97335.19;4924985;29;20051;-76
2023/01/17 03:42:55;;;;;;;1.27;0.73;;;;;;;2.86;100.00;97344.69;4909122;29;20134;-78
2023/01/17 03:46:27;;;;;;;0.70;0.70;;;;;;;2.98;100.00;97323.63;4936780;28;20482;-76
2023/01/17 03:48:56;;;;;;;0.75;0.75;;;;;;;2.95;100.00;97340.97;4911094;29;20055;-76
2023/01/17 03:51:26;;;;;;;0.70;0.70;;;;;;;2.98;100.00;97356.38;4907594;29;20131;-77
2023/01/17 03:53:55;;;;;;;1.20;1.20;;;;;;;2.94;100.00;97342.69;4928421;28;20071;-75
2023/01/17 03:56:28;;;;;;;1.13;1.02;;;;;;;2.97;100.00;97352.09;4943870;28;20069;-78
2023/01/17 03:58:58;;;;;;;1.52;1.42;;;;;;;2.99;100.00;97350.31;4927911;29;20047;-76
2023/01/17 04:01:28;;;;;;;1.35;1.20;;;;;;;2.90;100.00;97348.84;4930688;28;20043;-75
2023/01/17 04:03:57;;;;;;;1.35;1.25;;;;;;;2.94;100.00;97341.88;4933836;29;20041;-79
2023/01/17 04:06:28;;;;;;;1.50;1.40;;;;;;;2.93;100.00;97351.38;4947973;28;20035;-77
2023/01/17 04:08:57;;;;;;;1.20;1.10;;;;;;;2.92;100.00;97347.09;4943228;28;20954;-80
2023/01/17 04:14:28;;;;;;;2.88;1.10;;;;;;;2.84;100.00;97361.97;4924486;28;20478;-76
2023/01/17 04:16:58;;;;;;;1.42;1.38;;;;;;;2.85;100.00;97363.66;4930436;29;20058;-76
2023/01/17 04:24:05;;;;;;;;;;;;;;;;;;;;;
2023/01/17 04:26:43;;;;;;;1.80;1.38;;;;;;;2.94;100.00;97384.03;4922691;28;20045;-77
2023/01/17 04:29:13;;;;;;;1.50;1.40;;;;;;;2.90;100.00;97382.44;4945460;28;20035;-76
2023/01/17 04:31:42;;;;;;;1.10;1.10;;;;;;;2.91;100.00;97391.06;4946467;28;20035;-76
2023/01/17 04:34:12;;;;;;;1.17;1.17;;;;;;;2.97;100.00;97390.84;4929673;29;20031;-76
2023/01/17 04:36:42;;;;;;;0.80;0.80;;;;;;;2.93;100.00;97394.44;4928618;29;20103;-77
2023/01/17 04:39:11;;;;;;;0.32;0.32;;;;;;;2.90;100.00;97403.13;4928743;29;20058;-76
2023/01/17 04:41:44;;;;;;;0.30;0.22;;;;;;;2.92;100.00;97397.91;4929615;28;20047;-78
2023/01/17 04:44:34;;;;;;;0.65;0.50;;;;;;;2.87;100.00;97402.34;4946963;28;20132;-79
2023/01/17 04:47:33;;;;;;;0.60;0.60;;;;;;;2.84;100.00;97399.88;4942117;28;20188;-80
2023/01/17 04:50:03;;;;;;;0.30;0.30;;;;;;;2.78;100.00;97399.16;4946781;28;20042;-78
2023/01/17 04:52:33;;;;;;;1.73;0.40;;;;;;;2.77;100.00;97400.06;4932518;28;20043;-78
2023/01/17 04:55:33;;;;;;;0.30;0.30;;;;;;;2.78;100.00;97416.41;4948472;28;20067;-78
2023/01/17 04:58:02;;;;;;;0.50;0.50;;;;;;;2.69;100.00;97414.09;4945099;28;20039;-76
2023/01/17 05:00:34;;;;;;;0.30;0.30;;;;;;;2.64;100.00;97414.22;4940442;28;20047;-81
2023/01/17 05:03:04;;;;;;;0.45;0.30;;;;;;;2.63;100.00;97430.59;4945013;28;20819;-79
2023/01/17 05:05:31;;;;;;;0.45;0.22;;;;;;;2.56;100.00;97429.94;4944428;28;20098;-77
2023/01/17 05:11:48;;;;;;;0.25;0.25;;;;;;;2.44;100.00;97453.53;4897263;28;20055;-77
2023/01/17 05:14:17;;;;;;;1.25;0.20;;;;;;;2.33;100.00;97463.31;4909094;28;20453;-80
2023/01/17 05:16:59;;;;;;;0.65;0.20;;;;;;;2.24;100.00;97451.47;4924714;28;20058;-79
2023/01/17 05:19:48;;;;;;;0.30;0.20;;;;;;;2.19;100.00;97477.44;4916087;29;20054;-77
2023/01/17 05:22:17;;;;;;;0.17;0.17;;;;;;;2.18;100.00;97483.47;4909084;28;20059;-77
2023/01/17 05:24:50;;;;;;;0.52;0.43;;;;;;;2.09;100.00;97497.44;4925106;29;20031;-77
2023/01/17 05:27:19;;;;;;;0.20;0.20;;;;;;;2.05;100.00;97488.09;4932079;29;20043;-77
2023/01/17 05:29:48;;;;;;;0.85;0.00;;;;;;;1.90;100.00;97519.44;4925840;29;20051;-79
2023/01/17 05:32:19;;;;;;;0.10;0.10;;;;;;;1.78;100.00;97534.31;4912151;29;20039;-76
2023/01/17 05:34:49;;;;;;;1.38;0.15;;;;;;;1.70;100.00;97543.97;4927434;29;20807;-78
2023/01/17 05:37:16;;;;;;;2.55;0.20;;;;;;;1.59;100.00;97543.38;4943960;29;20051;-76
2023/01/17 05:39:49;;;;;;;0.90;0.28;;;;;;;1.52;100.00;97563.28;4925484;29;20043;-78
2023/01/17 05:42:29;;;;;;;0.40;0.20;;;;;;;1.48;100.00;97570.22;4933962;28;20031;-78
2023/01/17 05:44:58;;;;;;;0.90;0.45;;;;;;;1.35;100.00;97562.81;4944467;28;21140;-76
2023/01/17 05:47:28;;;;;;;0.15;0.10;;;;;;;1.24;100.00;97566.47;4923596;29;20110;-78
2023/01/17 05:49:58;;;;;;;0.20;0.10;;;;;;;1.15;100.00;97571.81;4930002;29;20051;-76
2023/01/17 05:53:13;;;;;;;0.28;0.20;;;;;;;0.97;100.00;97583.34;4945185;28;20054;-75
2023/01/17 05:59:03;;;;;;;0.10;0.10;;;;;;;0.81;100.00;97603.41;4931422;29;20175;-76
2023/01/17 06:01:30;;;;;;;0.85;0.20;;;;;;;0.80;100.00;97607.69;4920227;29;20043;-74
2023/01/17 06:03:56;;;;;;;0.15;0.10;;;;;;;0.77;100.00;97615.47;4934491;29;20051;-75
2023/01/17 06:06:23;;;;;;;0.15;0.15;;;;;;;0.73;100.00;97620.69;4935025;29;20043;-77
2023/01/17 06:08:52;;;;;;;0.20;0.20;;;;;;;0.75;100.00;97629.25;4932087;29;20094;-75
2023/01/17 06:11:19;;;;;;;0.40;0.38;;;;;;;0.81;100.00;97626.59;4913655;29;20062;-80
2023/01/17 06:13:45;;;;;;;0.30;0.30;;;;;;;0.83;100.00;97637.69;4931514;29;20530;-76
2023/01/17 06:16:12;;;;;;;0.43;0.22;;;;;;;0.84;100.00;97641.97;4930042;29;20051;-75
2023/01/17 06:18:38;;;;;;;0.75;0.20;;;;;;;0.84;100.00;97644.53;4930295;28;20051;-75
2023/01/17 06:21:05;;;;;;;0.20;0.20;;;;;;;0.90;100.00;97646.13;4913042;29;20055;-75
2023/01/17 06:23:31;;;;;;;0.17;0.17;;;;;;;1.00;100.00;97660.53;4944845;28;20050;-77
2023/01/17 06:26:03;;;;;;;0.28;0.25;;;;;;;1.03;100.00;97664.78;4928970;29;20725;-78
2023/01/17 06:28:29;;;;;;;1.02;0.40;;;;;;;1.07;100.00;97662.16;4930856;29;20054;-77
2023/01/17 06:30:56;;;;;;;0.20;0.20;;;;;;;1.08;100.00;97666.44;4935524;29;20110;-78
2023/01/17 06:33:23;;;;;;;0.60;0.20;;;;;;;1.07;100.00;97667.28;4936073;29;20793;-75
2023/01/17 06:35:52;;;;;;;2.28;0.55;;;;;;;1.02;100.00;97675.97;4916164;29;20047;-77
2023/01/17 06:38:21;;;;;;;1.17;0.63;;;;;;;0.98;100.00;97682.94;4932384;28;20546;-76
2023/01/17 06:40:50;;;;;;;0.88;0.75;;;;;;;0.93;100.00;97687.31;4946838;28;20045;-75
2023/01/17 06:43:17;;;;;;;1.98;1.17;;;;;;;0.93;100.00;97690.72;4949615;28;20043;-76
2023/01/17 06:45:43;;;;;;;2.95;1.48;;;;;;;0.87;100.00;97690.00;4952234;28;20039;-76
2023/01/17 06:48:10;;;;;;;2.90;1.27;;;;;;;0.85;100.00;97704.59;4921203;29;20039;-75
2023/01/17 06:50:36;;;;;;;3.33;0.55;;;;;;;0.88;100.00;97696.84;4937263;28;20051;-77
2023/01/17 06:53:07;;;;;;;3.67;1.35;;;;;;;0.91;100.00;97702.81;4935227;28;20054;-78
2023/01/17 06:55:34;;;;;;;0.73;0.30;;;;;;;0.94;100.00;97713.03;4934627;29;20494;-75
2023/01/17 06:58:02;;;;;;;0.43;0.38;;;;;;;0.95;100.00;97719.03;4943813;28;20039;-76
2023/01/17 07:00:29;;;;;;;1.75;0.43;;;;;;;0.96;100.00;97719.00;4948361;28;20094;-79
2023/01/17 07:02:56;;;;;;;1.30;0.57;;;;;;;0.94;100.00;97723.34;4929796;29;20043;-77
2023/01/17 07:05:22;;;;;;;0.20;0.20;;;;;;;0.94;100.00;97727.63;4950438;28;20489;-75
2023/01/17 07:07:49;;;;;;;0.30;0.25;;;;;;;0.93;100.00;97731.94;4934633;29;20047;-78
2023/01/17 07:10:16;;;;;;;0.30;0.30;;;;;;;0.95;100.00;97737.91;4952226;28;20031;-75
2023/01/17 07:12:42;;;;;;;0.20;0.20;;;;;;;0.95;100.00;97753.38;4932352;29;20043;-75
2023/01/17 07:15:10;;;;;;;0.82;0.22;;;;;;;0.94;100.00;97759.41;4937414;29;20047;-76
2023/01/17 07:17:36;;;;;;;0.22;0.22;;;;;;;0.91;100.00;97748.28;4945256;29;20135;-77
2023/01/17 07:20:03;;;;;;;0.73;0.30;;;;;;;0.89;100.00;97750.91;4947404;29;20047;-76
2023/01/17 07:22:30;;;;;;;2.05;0.50;;;;;;;0.86;100.00;97752.66;4953819;28;20043;-76
2023/01/17 07:24:58;;;;;;;4.60;0.32;;;;;;;0.88;100.00;97766.38;4938069;29;20054;-76
2023/01/17 07:27:26;;;;;;;3.20;0.60;;;;;;;0.89;100.00;97768.91;4936041;29;20060;-76
2023/01/17 07:29:53;;;;;;;3.10;0.40;;;;;;;0.91;100.00;97762.03;4934785;29;20047;-77
2023/01/17 07:32:19;;;;;;;1.88;0.50;;;;;;;0.85;100.00;97782.72;4920479;29;20049;-77
2023/01/17 07:34:45;;;;;;;1.45;0.52;;;;;;;0.82;100.00;97781.06;4946329;28;20047;-76
2023/01/17 07:37:12;;;;;;;0.93;0.30;;;;;;;0.81;100.00;97781.09;4934471;29;20035;-76
2023/01/17 07:39:38;;;;;;;0.65;0.40;;;;;;;0.83;100.00;97781.88;4951267;29;20442;-75
2023/01/17 07:42:05;;;;;;;1.00;0.68;;;;;;;0.78;100.00;97792.28;4941651;29;20047;-75
2023/01/17 07:44:31;;;;;;;3.20;0.60;;;;;;;0.78;100.00;97799.13;4914474;29;20034;-75
2023/01/17 07:46:58;;;;;;;2.25;0.60;;;;;;;0.77;100.00;97790.56;4939160;29;20040;-79
2023/01/17 07:49:24;;;;;;;0.88;0.70;;;;;;;0.80;100.00;97799.97;4941771;29;20040;-78
2023/01/17 07:51:51;;;;;;;1.67;1.02;;;;;;;0.84;100.00;97798.22;4935823;29;20046;-77
2023/01/17 07:54:17;;;;;;;2.05;1.10;;;;;;;0.87;100.00;97798.16;4935954;29;20063;-76
2023/01/17 07:56:45;;;;;;;1.52;0.98;;;;;;;0.90;100.00;97792.94;4953574;28;20058;-76
2023/01/17 07:59:13;;;;;;;1.75;0.70;;;;;;;0.93;100.00;97795.50;4927327;29;20043;-76
2023/01/17 08:01:39;;;;;;;1.00;0.73;;;;;;;0.99;100.00;97798.81;4950222;28;20039;-75
2023/01/17 08:04:06;;;;;;;2.25;0.40;;;;;;;1.01;100.00;97800.50;4947575;28;20046;-78
2023/01/17 08:06:32;;;;;;;1.45;1.00;;;;;;;1.06;100.00;97804.69;4940894;29;20043;-75
2023/01/17 08:08:59;;;;;;;2.60;1.00;;;;;;;1.13;100.00;97792.56;4929417;29;20410;-77
2023/01/17 08:11:26;;;;;;;2.08;1.00;;;;;;;1.17;100.00;97796.78;4935759;29;20047;-75
2023/01/17 08:13:56;;;;;;;3.72;1.67;;;;;;;1.18;100.00;97803.66;4934127;29;20169;-76
2023/01/17 08:16:23;;;;;;;3.53;0.60;;;;;;;1.23;100.00;97811.31;4934273;29;20151;-79
2023/01/17 08:18:51;;;;;;;0.88;0.70;;;;;;;1.27;100.00;97808.63;4935111;29;20743;-77
2023/01/17 08:21:18;;;;;;;4.10;2.58;;;;;;;1.30;100.00;97808.59;4937077;29;20051;-79
2023/01/17 08:23:49;;;;;;;3.45;1.02;;;;;;;1.34;100.00;97819.69;4939265;28;20127;-77
2023/01/17 08:26:21;;;;;;;1.50;0.73;;;;;;;1.38;100.00;97826.47;4935094;29;20047;-76
2023/01/17 08:28:59;;;;;;;2.63;0.60;;;;;;;1.44;100.00;97833.28;4933811;29;20071;-79
2023/01/17 08:31:31;;;;;;;5.10;0.98;;;;;;;1.47;100.00;97838.38;4933047;28;20576;-77
2023/01/17 08:33:58;;;;;;;0.90;0.57;;;;;;;1.52;100.00;97836.56;4935234;29;20484;-78
2023/01/17 08:36:26;;;;;;;1.70;0.80;;;;;;;1.53;100.00;97835.69;4934528;29;20038;-76
2023/01/17 08:38:53;;;;;;;2.63;0.73;;;;;;;1.54;100.00;97847.72;4937437;29;20070;-75
2023/01/17 08:41:21;;;;;;;2.35;1.20;;;;;;;1.59;100.00;97847.59;4937905;29;20027;-75
2023/01/17 08:43:49;;;;;;;2.30;0.85;;;;;;;1.62;100.00;97853.56;4935995;29;20043;-75
2023/01/17 08:46:16;;;;;;;1.00;0.60;;;;;;;1.62;100.00;97857.88;4955930;28;20054;-76
2023/01/17 08:48:43;;;;;;;1.38;0.90;;;;;;;1.63;100.00;97868.16;4935205;29;20036;-76
2023/01/17 08:51:11;;;;;;;3.72;0.80;;;;;;;1.60;100.00;97883.72;4947195;29;20479;-76
2023/01/17 08:53:37;;;;;;;4.15;0.75;;;;;;;1.54;100.00;97878.66;4938897;29;20572;-76
2023/01/17 08:56:05;;;;;;;1.67;1.08;;;;;;;1.38;100.00;97888.34;4949991;29;20035;-78
2023/01/17 08:58:34;;;;;;;1.10;0.70;;;;;;;1.29;100.00;97891.94;4945033;28;20634;-77
2023/01/17 09:01:05;;;;;;;1.20;0.50;;;;;;;1.16;100.00;97895.56;4936093;29;20044;-76
2023/01/17 09:03:33;;;;;;;5.22;0.70;;;;;;;1.11;100.00;97902.53;4953775;28;20572;-76
2023/01/17 09:06:12;;;;;;;3.15;1.10;;;;;;;1.13;100.00;97904.22;4922938;29;20474;-77
2023/01/17 09:08:39;;;;;;;1.13;0.63;;;;;;;1.04;100.00;97906.06;4929704;29;20158;-75
2023/01/17 09:11:11;;;;;;;0.85;0.65;;;;;;;1.10;100.00;97911.13;4945059;29;20044;-76
2023/01/17 09:13:39;;;;;;;3.83;0.73;;;;;;;1.10;100.00;97898.25;4932752;29;20046;-75
2023/01/17 09:16:06;;;;;;;2.83;0.93;;;;;;;1.14;100.00;97910.22;4929330;29;20032;-75
2023/01/17 09:18:34;;;;;;;3.05;0.70;;;;;;;1.19;100.00;97907.56;4950064;28;20118;-79
2023/01/17 09:21:15;;;;;;;2.40;0.85;;;;;;;1.18;100.00;97906.72;4918483;29;20047;-77
2023/01/17 09:23:42;;;;;;;3.83;0.80;;;;;;;1.22;100.00;97910.94;4917111;29;20103;-75
2023/01/17 09:26:21;;;;;;;0.95;0.40;;;;;;;1.31;100.00;97915.94;4930681;29;20031;-75
2023/01/17 09:28:48;;;;;;;2.05;0.75;;;;;;;1.23;100.00;97906.66;4933872;29;20046;-77
2023/01/17 09:31:15;;;;;;;1.55;0.93;;;;;;;1.30;100.00;97910.81;4929380;29;20210;-79
2023/01/17 09:33:42;;;;;;;2.05;0.88;;;;;;;1.25;100.00;97917.78;4931741;29;20466;-77
2023/01/17 09:36:10;;;;;;;3.60;1.20;;;;;;;1.34;100.00;97909.06;4931602;29;20035;-76
2023/01/17 09:38:37;;;;;;;2.55;1.23;;;;;;;1.28;100.00;97910.84;4934865;29;20067;-77
2023/01/17 09:41:23;;;;;;;2.90;0.88;;;;;;;1.24;100.00;97921.22;4936121;29;20050;-76
2023/01/17 09:44:01;;;;;;;3.28;0.85;;;;;;;1.29;100.00;97924.56;4945589;29;20047;-76
2023/01/17 09:46:33;;;;;;;8.68;0.93;;;;;;;1.32;100.00;97924.56;4943373;29;20043;-78
2023/01/17 09:49:12;;;;;;;2.75;1.40;;;;;;;1.36;100.00;97922.78;4932499;29;20478;-76
2023/01/17 09:51:39;;;;;;;5.32;1.48;;;;;;;1.38;100.00;97926.16;4935626;29;20118;-76
2023/01/17 09:54:22;;;;;;;3.88;0.88;;;;;;;1.47;100.00;97921.72;4948219;28;20063;-76
2023/01/17 09:57:22;;;;;;;3.65;0.88;;;;;;;1.53;100.00;97932.81;4940782;28;20047;-76
2023/01/17 10:00:36;;;;;;;1.92;0.65;;;;;;;1.59;98.91;97943.88;4944237;28;20749;-76
2023/01/17 10:03:20;;;;;;;4.70;0.82;;;;;;;1.53;99.45;97948.28;4947040;29;20047;-79
2023/01/17 10:06:26;;;;;;;3.13;0.90;;;;;;;1.60;97.92;97942.13;4947581;29;20039;-76
2023/01/17 10:09:03;;;;;;;3.13;1.10;;;;;;;1.59;96.84;97941.31;4939979;29;20046;-76
2023/01/17 10:11:45;;;;;;;1.50;0.80;;;;;;;1.65;96.46;97945.50;4944360;29;20134;-75
2023/01/17 10:14:38;;;;;;;2.08;0.85;;;;;;;1.70;94.72;97951.44;4932861;29;20145;-75
2023/01/17 10:17:22;;;;;;;3.70;0.90;;;;;;;1.64;96.24;97948.94;4948244;29;20043;-77
2023/01/17 10:20:33;;;;;;;7.32;0.98;;;;;;;1.55;97.39;97951.69;4947924;29;20047;-76
2023/01/17 10:24:02;;;;;;;4.40;1.10;;;;;;;1.65;96.48;97961.81;4952371;28;20557;-75
2023/01/17 10:26:28;;;;;;;2.45;0.73;;;;;;;1.64;97.08;97962.72;4943194;29;20138;-75
2023/01/17 10:29:03;;;;;;;4.10;1.15;;;;;;;1.73;95.76;97961.69;4940137;29;20039;-78
2023/01/17 10:31:44;;;;;;;1.67;1.15;;;;;;;1.76;95.02;97960.78;4941052;28;20500;-75
2023/01/17 10:34:18;;;;;;;4.53;0.95;;;;;;;1.75;95.28;97967.69;4941574;28;20051;-75
2023/01/17 10:36:50;;;;;;;;;;;;;;;1.79;94.50;97969.31;4940102;29;20065;-75
2023/01/17 10:39:24;;;;;;;2.13;1.15;;;;;;;1.86;94.25;97964.91;4942945;29;19929;-75
2023/01/17 10:41:56;;;;;;;;;;;;;;;1.91;93.97;97981.16;4954122;28;20131;-76
2023/01/17 10:45:04;;;;;;;2.22;1.70;;;;;;;1.98;93.42;97982.78;4920134;29;20067;-75
2023/01/17 10:47:38;;;;;;;3.50;0.90;;;;;;;1.97;92.41;97972.47;4909328;29;20150;-76
2023/01/17 10:50:05;;;;;;;2.42;1.05;;;;;;;1.92;94.10;97971.72;4952235;29;20036;-76
2023/01/17 10:53:10;;;;;;;2.42;0.98;;;;;;;1.86;94.62;97971.81;4935420;29;20039;-75
2023/01/17 10:55:48;;;;;;;1.58;1.20;;;;;;;1.90;94.31;97968.28;4945625;29;20130;-77
2023/01/17 10:58:15;;;;;;;5.60;2.03;;;;;;;1.95;93.88;97969.06;4923224;29;20043;-78
2023/01/17 11:01:12;;;;;;;4.35;1.17;;;;;;;2.07;93.57;97983.47;4938386;29;20039;-76
2023/01/17 11:03:39;;;;;;;3.65;0.85;;;;;;;2.09;92.53;97976.56;4945163;29;20055;-75
2023/01/17 11:06:22;;;;;;;3.42;1.10;;;;;;;2.09;92.59;97979.16;4937733;29;20040;-78
2023/01/17 11:09:00;;;;;;;1.67;0.70;;;;;;;2.16;91.83;97980.72;4947168;29;20043;-77
2023/01/17 11:11:32;;;;;;;1.20;1.00;;;;;;;2.17;91.75;97985.03;4938901;29;20039;-79
2023/01/17 11:14:06;;;;;;;3.45;0.98;;;;;;;2.14;92.45;97975.59;4937555;29;20050;-77
2023/01/17 11:16:34;;;;;;;4.85;1.08;;;;;;;2.10;92.97;97980.84;4953533;29;20035;-77
2023/01/17 11:19:27;;;;;;;3.67;0.85;;;;;;;2.18;91.64;97973.81;4948841;28;20047;-78
2023/01/17 11:22:00;;;;;;;3.13;1.00;;;;;;;2.19;89.87;97985.84;4913770;29;20075;-78
2023/01/17 11:24:44;;;;;;;0.93;0.68;;;;;;;2.28;88.91;97982.22;4938564;29;20057;-79
2023/01/17 11:27:24;;;;;;;3.30;0.95;;;;;;;2.34;87.11;97983.88;4941526;29;20043;-78
2023/01/17 11:30:22;;;;;;;4.18;0.75;;;;;;;2.26;88.85;97982.28;4934909;29;20047;-77
2023/01/17 11:32:56;;;;;;;1.00;0.88;;;;;;;2.25;90.16;97993.47;4949185;28;20333;-78
2023/01/17 11:35:25;;;;;;;;;;;;;;;2.27;90.30;97986.56;4942319;28;20122;-78
2023/01/17 11:38:14;;;;;;;3.55;0.70;;;;;;;2.25;89.87;97996.03;4936832;29;19953;-77
2023/01/17 11:40:46;;;;;;;2.83;0.80;;;;;;;2.35;89.16;97985.53;4925974;29;20110;-79
2023/01/17 11:43:13;;;;;;;5.53;0.80;;;;;;;2.52;87.87;97993.00;4951106;29;20039;-77
2023/01/17 11:45:40;;;;;;;3.25;0.60;;;;;;;2.64;87.25;97996.16;4954760;28;20054;-77
2023/01/17 11:48:10;;;;;;;3.28;0.90;;;;;;;2.65;87.47;97997.03;4920444;29;20482;-76
2023/01/17 11:50:40;;;;;;;9.38;1.58;;;;;;;2.60;87.97;97985.94;4935687;29;20031;-78
2023/01/17 11:53:22;;;;;;;0.93;0.85;;;;;;;2.67;86.43;97990.09;4941141;29;20035;-75
2023/01/17 11:56:19;;;;;;;4.00;0.88;;;;;;;2.70;85.91;97986.59;4940023;29;20051;-76
2023/01/17 11:58:46;;;;;;;4.97;0.88;;;;;;;2.75;86.66;97974.44;4915371;29;20059;-75
2023/01/17 12:01:37;;;;;;;7.03;0.75;;;;;;;2.77;85.93;97985.59;4930541;29;20095;-76
2023/01/17 12:04:28;;;;;;;2.60;0.98;;;;;;;2.72;85.67;97990.84;4948217;28;20383;-78
2023/01/17 12:07:17;;;;;;;2.00;0.73;;;;;;;2.58;85.35;97983.41;4934284;29;20355;-78
2023/01/17 12:10:05;;;;;;;3.03;0.80;;;;;;;2.50;86.10;97987.84;4950592;28;20154;-77
2023/01/17 12:16:27;;;;;;;6.13;0.77;;;;;;;2.52;85.39;97993.00;4947878;29;20051;-78
2023/01/17 12:19:31;;;;;;;1.40;0.70;;;;;;;2.84;84.27;97989.75;4948378;29;20094;-78
2023/01/17 12:22:21;;;;;;;5.90;0.90;;;;;;;3.08;83.06;97995.31;4945112;28;20070;-77
2023/01/17 12:25:10;;;;;;;3.45;0.90;;;;;;;3.19;81.95;97997.66;4951182;28;20047;-78
2023/01/17 12:28:21;;;;;;;1.52;0.75;;;;;;;3.19;82.10;97982.13;4947835;29;20122;-77
2023/01/17 12:31:23;;;;;;;2.30;0.63;;;;;;;3.08;83.12;97990.13;4946964;28;20051;-76
2023/01/17 12:34:19;;;;;;;1.83;0.75;;;;;;;3.18;83.26;98001.13;4947389;29;20050;-76
2023/01/17 12:37:00;;;;;;;2.40;0.52;;;;;;;3.25;79.82;97998.38;4934435;29;20047;-77
2023/01/17 12:39:37;;;;;;;3.80;0.52;;;;;;;3.07;80.10;98004.78;4946829;29;20031;-76
2023/01/17 12:42:21;;;;;;;3.92;0.77;;;;;;;2.86;81.59;98011.25;4934089;28;20477;-75
2023/01/17 12:44:52;;;;;;;7.35;0.93;;;;;;;2.84;82.19;98012.16;4933420;29;20046;-79
2023/01/17 12:47:21;;;;;;;3.80;1.63;;;;;;;2.85;82.27;98006.97;4950775;29;20655;-75
2023/01/17 12:50:02;;;;;;;0.88;0.60;;;;;;;2.86;80.38;98008.66;4930120;29;20047;-82
2023/01/17 12:52:46;;;;;;;2.33;0.70;;;;;;;2.70;81.59;98012.44;4916358;29;20050;-77
2023/01/17 12:55:20;;;;;;;4.87;1.60;;;;;;;2.54;81.77;98009.31;4934276;29;20055;-75
2023/01/17 12:57:56;;;;;;;4.30;0.73;;;;;;;2.44;82.68;98009.47;4947148;29;20761;-75
2023/01/17 13:00:28;;;;;;;1.67;1.08;;;;;;;2.41;82.06;98003.50;4947542;28;20520;-76
2023/01/17 13:03:23;;;;;;;2.83;1.10;;;;;;;2.45;81.33;98011.19;4930726;29;20769;-76
2023/01/17 13:05:51;;;;;;;2.42;1.10;;;;;;;2.43;81.65;98012.09;4933108;29;20047;-77
2023/01/17 13:08:41;;;;;;;3.17;1.10;;;;;;;2.43;81.35;98012.09;4930932;29;20141;-78
2023/01/17 13:11:32;;;;;;;3.85;1.20;;;;;;;2.56;80.57;98008.38;4933913;29;20043;-75
2023/01/17 13:13:59;;;;;;;9.57;2.65;;;;;;;2.70;79.01;98015.00;4946120;29;20050;-78
2023/01/17 13:17:03;;;;;;;12.13;2.03;;;;;;;2.85;78.74;98024.19;4957855;28;20063;-75
2023/01/17 13:19:50;;;;;;;2.58;1.17;;;;;;;2.91;78.14;98014.59;4927654;29;20430;-75
2023/01/17 13:22:18;;;;;;;2.65;1.67;;;;;;;2.95;78.24;98010.22;4927460;29;20047;-75
2023/01/17 13:25:20;;;;;;;5.35;1.60;;;;;;;2.96;78.95;98030.84;4931060;29;20059;-75
2023/01/17 13:28:17;;;;;;;10.05;2.40;;;;;;;3.03;76.57;98026.41;4932241;29;20087;-77
2023/01/17 13:31:14;;;;;;;1.85;1.23;;;;;;;3.09;77.16;98036.63;4948754;29;20042;-76
2023/01/17 13:34:15;;;;;;;3.75;1.25;;;;;;;3.11;76.74;98034.00;4930131;28;20492;-77
2023/01/17 13:37:23;;;;;;;1.88;1.13;;;;;;;3.12;76.72;98031.38;4950824;28;20039;-76
2023/01/17 13:40:32;;;;;;;5.65;2.42;;;;;;;3.10;76.99;98032.28;4950108;28;20059;-77
2023/01/17 13:43:02;;;;;;;3.35;1.95;;;;;;;3.05;77.02;98044.47;4933553;29;20127;-78
2023/01/17 13:45:39;;;;;;;5.55;1.50;;;;;;;2.79;77.37;98040.66;4931634;29;20368;-76
2023/01/17 13:48:11;;;;;;;4.88;1.52;;;;;;;2.58;78.41;98055.72;4930134;29;20051;-79
2023/01/17 13:50:38;;;;;;;5.65;1.60;;;;;;;2.43;78.93;98056.81;4947380;29;20049;-77
2023/01/17 13:53:35;;;;;;;1.45;1.33;;;;;;;2.28;80.31;98065.72;4933056;29;20043;-76
2023/01/17 13:56:26;;;;;;;4.90;1.83;;;;;;;2.20;80.26;98070.13;4946076;28;20066;-78
2023/01/17 13:58:54;;;;;;;2.42;1.17;;;;;;;2.23;80.31;98064.94;4932476;29;20525;-76
2023/01/17 14:01:23;;;;;;;1.35;1.15;;;;;;;2.24;80.15;98066.66;4949065;29;20125;-78
2023/01/17 14:03:49;;;;;;;3.20;1.45;;;;;;;2.20;80.60;98074.44;4932172;29;20518;-78
2023/01/17 14:06:55;;;;;;;7.72;2.55;;;;;;;2.24;80.58;98078.69;4948014;29;20046;-78
2023/01/17 14:09:41;;;;;;;2.55;1.20;;;;;;;2.24;80.68;98079.56;4910718;29;20051;-76
2023/01/17 14:12:10;;;;;;;2.63;2.42;;;;;;;2.30;81.18;98084.59;4957460;29;20035;-76
2023/01/17 14:14:39;;;;;;;2.90;1.25;;;;;;;2.36;81.67;98086.22;4973248;29;20066;-77